HKMO/MBA METAR and TAF weather

Enter ICAO airport designator
Station Type Date Time Source
HKMO METAR 2018/10/21 06:00 UTC NOAA

HKMO 210600Z 16007KT 9999 SCT023 28/23 Q1016 NOSIG


Station Type Date Time Source
HKMO Decoded METAR 2018/10/21 06:00 UTC NOAA

Mombasa, Kenya (HKMO) 04-02S 039-37E 55M
Oct 21, 2018 - 02:00 AM EDT / 2018.10.21 0600 UTC
Wind: from the SSE (160 degrees) at 8 MPH (7 KT):0
Visibility: greater than 7 mile(s):0
Sky conditions: partly cloudy
Temperature: 82 F (28 C)
Dew Point: 73 F (23 C)
Relative Humidity: 74%
Pressure (altimeter): 30.00 in. Hg (1016 hPa)
ob: HKMO 210600Z 16007KT 9999 SCT023 28/23 Q1016 NOSIG
cycle: 6

Station Type Date Time Source
HKMO TAF 2018/09/29 06:54 UTC NOAA

TAF HKMO 290500Z 2906/3012 22007KT 9999 FEW020
BECMG 2809/2912 17010KT BKN021 BKN080
BECMG 2918/2924 19010KT SCT020 SCT080
BECMG 3000/3006 23005KT FEW019
BECMG 3009/312 15010KT SCT025


Example: see airport list